Willow Oak, Texas
Current Conditions -  °F | °C
As of 3:55 PM on Monday 20 Oct 2014 (Local Time) from KOSA Reporting Station
Clear Clear  
Wind Chill: 78°   Ceiling: Unl
Heat Index: 79°   Visibility: 10mi
Dew Point: 56°   Wind: 3mph
Humidity: 46%   Direction: 50°NE
Pressure: 30.05"   Gusts: NA
Location:  32.7353°N, 94.9492°W
Report Text: KOSA 202055Z AUTO 05003KT 10SM CLR 26/13 A3005 RMK AO1 T02560132
Loading
Personal Weather Stations






























Interactive Weather Map
Tropical Storm Tracking
New forecast layout! Learn more

10-Day Weather Forecast

Advertisements
Track Severe Weather on mobile